Time;durP1;ratioP1;P1;durP2;ratioP2;P2;SDS_P1;SDS_P2;PMS_P1;PMS_P2;Temp;Humidity;BMP_temperature;BMP_pressure;BME280_temperature;BME280_humidity;BME280_pressure;Samples;Min_cycle;Max_cycle;Signal;HPM_P1;HPM_P2
2024/01/31 00:01:59;;;;;;;7.30;1.35;;;;;;;;;;5125793;27;20054;-75
2024/01/31 00:04:29;;;;;;;3.72;1.00;;;;;;;;;;5125812;27;20062;-74
2024/01/31 00:07:01;;;;;;;4.63;0.90;;;;;;;;;;5125687;27;20058;-74
2024/01/31 00:09:32;;;;;;;3.50;1.30;;;;;;;;;;5126460;27;20405;-75
2024/01/31 00:12:02;;;;;;;3.35;1.10;;;;;;;;;;5125914;27;20039;-75
2024/01/31 00:14:33;;;;;;;6.32;1.05;;;;;;;;;;5125641;27;20050;-75
2024/01/31 00:17:04;;;;;;;4.80;0.90;;;;;;;;;;5125555;27;20054;-76
2024/01/31 00:19:34;;;;;;;3.05;1.10;;;;;;;;;;5125005;27;20047;-75
2024/01/31 00:22:05;;;;;;;7.55;1.15;;;;;;;;;;5125822;27;20047;-77
2024/01/31 00:24:36;;;;;;;6.82;1.65;;;;;;;;;;5124958;27;20532;-76
2024/01/31 00:27:08;;;;;;;2.92;1.40;;;;;;;;;;5124525;27;20414;-74
2024/01/31 00:29:38;;;;;;;4.95;0.90;;;;;;;;;;5125761;27;20512;-74
2024/01/31 00:32:09;;;;;;;7.55;1.40;;;;;;;;;;5123998;27;20055;-74
2024/01/31 00:34:40;;;;;;;4.95;1.10;;;;;;;;;;5125285;27;20043;-75
2024/01/31 00:37:11;;;;;;;3.50;0.73;;;;;;;;;;5124782;27;20055;-75
2024/01/31 00:39:47;;;;;;;4.68;1.00;;;;;;;;;;5123436;27;20055;-75
2024/01/31 00:42:17;;;;;;;3.17;0.90;;;;;;;;;;5125089;27;20054;-75
2024/01/31 00:44:48;;;;;;;5.40;1.00;;;;;;;;;;5124719;27;20078;-78
2024/01/31 00:47:19;;;;;;;4.80;1.10;;;;;;;;;;5124615;27;20046;-75
2024/01/31 00:49:49;;;;;;;2.92;1.08;;;;;;;;;;5125184;27;20050;-75
2024/01/31 00:52:19;;;;;;;2.72;1.30;;;;;;;;;;5125066;27;20047;-75
2024/01/31 00:54:50;;;;;;;3.63;0.98;;;;;;;;;;5124573;27;20043;-76
2024/01/31 00:57:22;;;;;;;5.75;1.00;;;;;;;;;;5124666;27;20043;-76
2024/01/31 00:59:52;;;;;;;4.90;1.17;;;;;;;;;;5120535;27;20043;-75
2024/01/31 01:02:22;;;;;;;5.00;1.13;;;;;;;;;;5122252;27;20043;-75
2024/01/31 01:04:54;;;;;;;1.83;0.80;;;;;;;;;;5123515;27;20047;-76
2024/01/31 01:07:26;;;;;;;5.47;1.33;;;;;;;;;;5124174;27;20046;-77
2024/01/31 01:09:57;;;;;;;4.90;1.00;;;;;;;;;;5123299;27;20066;-76
2024/01/31 01:12:28;;;;;;;4.18;1.10;;;;;;;;;;5122371;27;20883;-74
2024/01/31 01:14:59;;;;;;;4.30;0.93;;;;;;;;;;5123934;27;20050;-76
2024/01/31 01:17:43;;;;;;;5.95;0.88;;;;;;;;;;5124737;27;20046;-76
2024/01/31 01:20:15;;;;;;;3.63;0.88;;;;;;;;;;5124735;27;20054;-76
2024/01/31 01:22:47;;;;;;;2.97;0.90;;;;;;;;;;5124732;27;20039;-76
2024/01/31 01:25:17;;;;;;;2.20;1.00;;;;;;;;;;5124181;27;20039;-75
2024/01/31 01:27:51;;;;;;;5.50;1.13;;;;;;;;;;5124425;27;20051;-75
2024/01/31 01:30:23;;;;;;;7.90;1.00;;;;;;;;;;5124673;27;20058;-76
2024/01/31 01:32:53;;;;;;;4.75;0.93;;;;;;;;;;5124057;27;20046;-76
2024/01/31 01:35:23;;;;;;;7.20;1.08;;;;;;;;;;5124190;27;20058;-77
2024/01/31 01:37:54;;;;;;;7.20;1.10;;;;;;;;;;5124169;27;20047;-76
2024/01/31 01:40:25;;;;;;;6.05;0.98;;;;;;;;;;5121923;27;20059;-76
2024/01/31 01:42:56;;;;;;;4.43;1.38;;;;;;;;;;5124691;27;20428;-78
2024/01/31 01:45:29;;;;;;;10.63;1.20;;;;;;;;;;5123989;27;20050;-77
2024/01/31 01:48:00;;;;;;;3.28;1.10;;;;;;;;;;5123759;27;20049;-75
2024/01/31 01:50:31;;;;;;;4.47;1.60;;;;;;;;;;5122057;27;20054;-74
2024/01/31 01:53:02;;;;;;;7.97;1.08;;;;;;;;;;5123848;27;20493;-76
2024/01/31 01:55:34;;;;;;;3.30;1.10;;;;;;;;;;5124363;27;20051;-73
2024/01/31 01:58:05;;;;;;;6.45;1.08;;;;;;;;;;5124054;27;20054;-74
2024/01/31 02:00:40;;;;;;;4.80;1.10;;;;;;;;;;5123905;27;20050;-76
2024/01/31 02:03:11;;;;;;;2.70;1.00;;;;;;;;;;5123507;27;20413;-75
2024/01/31 02:05:45;;;;;;;6.07;0.98;;;;;;;;;;5124492;27;20043;-75
2024/01/31 02:08:16;;;;;;;3.38;0.82;;;;;;;;;;5124224;27;20043;-76
2024/01/31 02:10:47;;;;;;;4.07;1.10;;;;;;;;;;5123348;27;20047;-74
2024/01/31 02:13:18;;;;;;;3.50;0.90;;;;;;;;;;5121917;27;20494;-75
2024/01/31 02:15:54;;;;;;;5.47;0.93;;;;;;;;;;5123364;27;20051;-74
2024/01/31 02:18:30;;;;;;;5.07;1.00;;;;;;;;;;5123171;27;20047;-75
2024/01/31 02:21:01;;;;;;;4.28;0.90;;;;;;;;;;5122997;27;20441;-76
2024/01/31 02:23:32;;;;;;;4.88;0.80;;;;;;;;;;5124008;27;20051;-76
2024/01/31 02:26:03;;;;;;;3.72;0.95;;;;;;;;;;5123113;27;20046;-75
2024/01/31 02:28:33;;;;;;;3.13;0.80;;;;;;;;;;5123950;27;20141;-74
2024/01/31 02:31:06;;;;;;;7.40;1.27;;;;;;;;;;5123121;27;20051;-76
2024/01/31 02:33:38;;;;;;;2.88;0.63;;;;;;;;;;5123486;27;20043;-76
2024/01/31 02:36:08;;;;;;;7.07;1.05;;;;;;;;;;5122767;27;20054;-75
2024/01/31 02:38:38;;;;;;;8.15;0.90;;;;;;;;;;5123491;27;20047;-73
2024/01/31 02:41:09;;;;;;;7.13;1.17;;;;;;;;;;5123324;27;20072;-75
2024/01/31 02:43:41;;;;;;;2.10;0.73;;;;;;;;;;5124504;27;20047;-75
2024/01/31 02:46:16;;;;;;;3.88;0.77;;;;;;;;;;5123725;27;20051;-75
2024/01/31 02:48:48;;;;;;;6.85;1.30;;;;;;;;;;5122650;27;20403;-75
2024/01/31 02:51:19;;;;;;;5.75;1.25;;;;;;;;;;5123081;28;20050;-74
2024/01/31 02:53:50;;;;;;;3.58;1.02;;;;;;;;;;5122706;28;20405;-75
2024/01/31 02:56:22;;;;;;;5.18;1.30;;;;;;;;;;5122868;28;20050;-74
2024/01/31 02:58:52;;;;;;;5.22;0.82;;;;;;;;;;5122038;28;20039;-74
2024/01/31 03:01:23;;;;;;;4.55;1.02;;;;;;;;;;5120935;27;20043;-73
2024/01/31 03:03:56;;;;;;;4.45;1.00;;;;;;;;;;5121377;28;20051;-75
2024/01/31 03:06:28;;;;;;;2.63;0.90;;;;;;;;;;5123170;28;20051;-75
2024/01/31 03:08:58;;;;;;;3.75;1.15;;;;;;;;;;5122703;28;20047;-74
2024/01/31 03:11:28;;;;;;;9.30;1.00;;;;;;;;;;5123135;27;20066;-76
2024/01/31 03:13:59;;;;;;;3.58;0.90;;;;;;;;;;5123232;28;20046;-75
2024/01/31 03:16:30;;;;;;;5.60;1.45;;;;;;;;;;5123242;28;20040;-75
2024/01/31 03:19:03;;;;;;;3.08;1.00;;;;;;;;;;5122757;27;20047;-75
2024/01/31 03:21:33;;;;;;;5.50;1.42;;;;;;;;;;5123032;27;20047;-75
2024/01/31 03:24:04;;;;;;;4.18;1.30;;;;;;;;;;5122753;27;20055;-73
2024/01/31 03:26:35;;;;;;;3.00;1.23;;;;;;;;;;5126799;27;20047;-75
2024/01/31 03:29:05;;;;;;;4.07;1.00;;;;;;;;;;5126807;27;20051;-76
2024/01/31 03:31:36;;;;;;;3.60;1.00;;;;;;;;;;5126670;27;20047;-75
2024/01/31 03:34:07;;;;;;;6.85;0.93;;;;;;;;;;5126961;27;20094;-76
2024/01/31 03:36:38;;;;;;;5.32;1.05;;;;;;;;;;5126717;27;20053;-76
2024/01/31 03:39:09;;;;;;;13.50;1.50;;;;;;;;;;5125892;27;20417;-74
2024/01/31 03:41:49;;;;;;;2.03;0.85;;;;;;;;;;5124963;27;20526;-74
2024/01/31 03:44:19;;;;;;;8.13;1.30;;;;;;;;;;5126222;27;20050;-75
2024/01/31 03:46:50;;;;;;;2.55;0.93;;;;;;;;;;5126092;27;20043;-76
2024/01/31 03:49:20;;;;;;;10.18;1.10;;;;;;;;;;5126203;27;20526;-75
2024/01/31 03:51:51;;;;;;;6.00;0.98;;;;;;;;;;5126670;27;20096;-77
2024/01/31 03:54:21;;;;;;;5.88;1.17;;;;;;;;;;5126055;27;20051;-75
2024/01/31 03:56:51;;;;;;;7.55;1.10;;;;;;;;;;5126347;27;20129;-73
2024/01/31 03:59:22;;;;;;;2.70;0.80;;;;;;;;;;5126000;27;20047;-74
2024/01/31 04:01:52;;;;;;;3.08;1.15;;;;;;;;;;5126250;27;20047;-74
2024/01/31 04:04:22;;;;;;;1.80;1.23;;;;;;;;;;5126014;27;20413;-74
2024/01/31 04:06:53;;;;;;;3.55;1.35;;;;;;;;;;5123699;27;20043;-75
2024/01/31 04:09:23;;;;;;;8.27;1.20;;;;;;;;;;5125760;27;20035;-75
2024/01/31 04:11:54;;;;;;;3.22;1.10;;;;;;;;;;5125251;27;20047;-75
2024/01/31 04:14:24;;;;;;;2.20;0.82;;;;;;;;;;5126001;27;20043;-74
2024/01/31 04:16:55;;;;;;;5.10;1.10;;;;;;;;;;5125493;27;20050;-74
2024/01/31 04:19:26;;;;;;;5.80;1.10;;;;;;;;;;5125388;27;20043;-75
2024/01/31 04:21:56;;;;;;;5.85;0.95;;;;;;;;;;5123446;27;20058;-75
2024/01/31 04:24:27;;;;;;;3.85;1.08;;;;;;;;;;5125723;27;20042;-74
2024/01/31 04:26:57;;;;;;;7.72;1.52;;;;;;;;;;5125674;27;20050;-76
2024/01/31 04:29:28;;;;;;;7.32;1.27;;;;;;;;;;5125411;27;20051;-74
2024/01/31 04:31:59;;;;;;;1.48;1.20;;;;;;;;;;5126072;27;20417;-77
2024/01/31 04:34:31;;;;;;;3.15;1.10;;;;;;;;;;5127822;27;20054;-76
2024/01/31 04:37:02;;;;;;;11.23;1.10;;;;;;;;;;5125452;27;20054;-76
2024/01/31 04:39:35;;;;;;;5.78;1.30;;;;;;;;;;5126452;27;20039;-74
2024/01/31 04:42:05;;;;;;;4.28;1.42;;;;;;;;;;5125357;27;20413;-74
2024/01/31 04:44:36;;;;;;;6.47;1.02;;;;;;;;;;5125769;27;20051;-76
2024/01/31 04:47:08;;;;;;;7.70;1.42;;;;;;;;;;5125470;27;20035;-74
2024/01/31 04:49:40;;;;;;;4.65;1.17;;;;;;;;;;5125505;27;20043;-75
2024/01/31 04:52:11;;;;;;;2.05;1.02;;;;;;;;;;5125316;27;20043;-76
2024/01/31 04:54:41;;;;;;;5.53;1.00;;;;;;;;;;5125066;27;20498;-75
2024/01/31 04:57:12;;;;;;;8.00;1.20;;;;;;;;;;5125892;27;20073;-75
2024/01/31 04:59:43;;;;;;;10.40;1.35;;;;;;;;;;5124519;27;20536;-74
2024/01/31 05:02:13;;;;;;;3.50;0.98;;;;;;;;;;5124601;27;20047;-74
2024/01/31 05:04:45;;;;;;;2.60;1.08;;;;;;;;;;5124526;27;20047;-74
2024/01/31 05:07:15;;;;;;;2.20;1.00;;;;;;;;;;5125285;27;20046;-76
2024/01/31 05:09:46;;;;;;;4.50;1.05;;;;;;;;;;5124864;27;20516;-75
2024/01/31 05:12:16;;;;;;;2.22;0.93;;;;;;;;;;5123500;27;20051;-75
2024/01/31 05:14:47;;;;;;;8.57;1.20;;;;;;;;;;5124522;27;20054;-75
2024/01/31 05:17:18;;;;;;;7.95;1.08;;;;;;;;;;5124834;27;20520;-72
2024/01/31 05:19:51;;;;;;;3.00;1.20;;;;;;;;;;5124715;27;20046;-76
2024/01/31 05:22:21;;;;;;;4.05;0.90;;;;;;;;;;5124754;27;20505;-76
2024/01/31 05:24:51;;;;;;;4.53;1.17;;;;;;;;;;5124203;27;20043;-73
2024/01/31 05:27:21;;;;;;;6.03;1.38;;;;;;;;;;5123806;27;20054;-74
2024/01/31 05:29:53;;;;;;;2.22;1.10;;;;;;;;;;5124477;27;20493;-72
2024/01/31 05:32:23;;;;;;;2.17;1.27;;;;;;;;;;5124047;27;20058;-74
2024/01/31 05:34:54;;;;;;;2.60;1.08;;;;;;;;;;5124284;27;20677;-75
2024/01/31 05:37:24;;;;;;;5.47;1.42;;;;;;;;;;5124033;27;20054;-75
2024/01/31 05:39:55;;;;;;;5.88;1.42;;;;;;;;;;5123751;27;20057;-74
2024/01/31 05:42:26;;;;;;;6.18;1.13;;;;;;;;;;5122331;27;20051;-74
2024/01/31 05:44:57;;;;;;;2.63;1.20;;;;;;;;;;5123963;27;20050;-74
2024/01/31 05:47:27;;;;;;;9.18;1.25;;;;;;;;;;5123565;27;20058;-74
2024/01/31 05:49:57;;;;;;;8.07;1.58;;;;;;;;;;5123395;27;20058;-74
2024/01/31 05:52:29;;;;;;;2.67;1.50;;;;;;;;;;5123605;27;20576;-76
2024/01/31 05:55:00;;;;;;;2.47;1.30;;;;;;;;;;5123721;27;20105;-76
2024/01/31 05:57:31;;;;;;;6.82;1.65;;;;;;;;;;5124849;27;20051;-74
2024/01/31 06:00:07;;;;;;;4.03;1.15;;;;;;;;;;5123993;27;20976;-73
2024/01/31 06:02:43;;;;;;;2.63;1.20;;;;;;;;;;5122389;27;20501;-75
2024/01/31 06:05:17;;;;;;;6.13;1.95;;;;;;;;;;5123618;27;20613;-75
2024/01/31 06:07:49;;;;;;;3.75;1.13;;;;;;;;;;5124076;27;20050;-74
2024/01/31 06:10:20;;;;;;;5.53;1.27;;;;;;;;;;5122935;27;20050;-74
2024/01/31 06:12:51;;;;;;;4.90;1.73;;;;;;;;;;5121602;27;20404;-74
2024/01/31 06:15:21;;;;;;;7.50;1.23;;;;;;;;;;5123052;27;20050;-74
2024/01/31 06:17:53;;;;;;;4.82;1.30;;;;;;;;;;5123452;27;20043;-73
2024/01/31 06:20:23;;;;;;;2.05;1.00;;;;;;;;;;5123459;27;20046;-76
2024/01/31 06:22:53;;;;;;;2.17;0.93;;;;;;;;;;5123732;27;20046;-75
2024/01/31 06:25:23;;;;;;;3.30;1.23;;;;;;;;;;5123226;27;20506;-74
2024/01/31 06:27:54;;;;;;;5.15;1.40;;;;;;;;;;5122985;27;20043;-76
2024/01/31 06:30:31;;;;;;;2.88;1.10;;;;;;;;;;5123352;27;20118;-73
2024/01/31 06:33:07;;;;;;;7.82;1.35;;;;;;;;;;5123458;27;20050;-73
2024/01/31 06:35:47;;;;;;;3.13;1.40;;;;;;;;;;5123800;27;20409;-74
2024/01/31 06:38:18;;;;;;;4.72;1.30;;;;;;;;;;5123704;27;20070;-74
2024/01/31 06:40:48;;;;;;;3.33;1.58;;;;;;;;;;5122689;27;20433;-74
2024/01/31 06:43:19;;;;;;;2.97;1.48;;;;;;;;;;5122953;27;20043;-75
2024/01/31 06:45:49;;;;;;;3.95;1.40;;;;;;;;;;5122832;27;20046;-74
2024/01/31 06:48:20;;;;;;;4.80;1.20;;;;;;;;;;5122512;27;20047;-72
2024/01/31 06:50:52;;;;;;;2.13;1.13;;;;;;;;;;5123187;27;20528;-73
2024/01/31 06:53:21;;;;;;;6.10;1.40;;;;;;;;;;5123790;27;20043;-75
2024/01/31 06:55:52;;;;;;;4.72;1.23;;;;;;;;;;5122482;28;20054;-74
2024/01/31 06:58:22;;;;;;;3.92;1.13;;;;;;;;;;5120977;28;20051;-74
2024/01/31 07:00:55;;;;;;;3.40;1.45;;;;;;;;;;5125737;27;20536;-75
2024/01/31 07:03:26;;;;;;;3.08;1.40;;;;;;;;;;5127359;27;20051;-73
2024/01/31 07:05:56;;;;;;;5.82;1.02;;;;;;;;;;5127390;27;20056;-74
2024/01/31 07:08:27;;;;;;;4.97;1.20;;;;;;;;;;5126986;27;20520;-74
2024/01/31 07:10:57;;;;;;;2.83;1.13;;;;;;;;;;5127695;27;20039;-75
2024/01/31 07:13:31;;;;;;;1.13;1.02;;;;;;;;;;5127252;27;20039;-74
2024/01/31 07:16:09;;;;;;;3.80;1.40;;;;;;;;;;5127431;27;20047;-74
2024/01/31 07:18:43;;;;;;;5.10;1.10;;;;;;;;;;5126320;27;20039;-73
2024/01/31 07:21:24;;;;;;;5.95;1.67;;;;;;;;;;5126472;27;20386;-74
2024/01/31 07:23:56;;;;;;;7.40;1.10;;;;;;;;;;5126621;27;20433;-74
2024/01/31 07:26:36;;;;;;;3.42;1.40;;;;;;;;;;5127122;27;20421;-74
2024/01/31 07:29:10;;;;;;;6.72;1.23;;;;;;;;;;5126775;27;20039;-75
2024/01/31 07:31:40;;;;;;;2.17;1.15;;;;;;;;;;5126520;27;20050;-73
2024/01/31 07:34:12;;;;;;;3.90;1.23;;;;;;;;;;5126749;27;20047;-73
2024/01/31 07:36:43;;;;;;;2.85;1.00;;;;;;;;;;5126526;27;20062;-76
2024/01/31 07:39:14;;;;;;;8.95;1.60;;;;;;;;;;5126558;27;20050;-76
2024/01/31 07:41:45;;;;;;;2.58;1.02;;;;;;;;;;5126237;27;20062;-74
2024/01/31 07:44:17;;;;;;;3.00;1.20;;;;;;;;;;5126999;27;20058;-74
2024/01/31 07:46:48;;;;;;;2.72;1.38;;;;;;;;;;5124567;27;20051;-74
2024/01/31 07:49:19;;;;;;;5.72;1.40;;;;;;;;;;5126161;27;20047;-74
2024/01/31 07:51:55;;;;;;;2.47;1.23;;;;;;;;;;5126558;27;20070;-75
2024/01/31 07:54:27;;;;;;;2.70;1.40;;;;;;;;;;5126377;27;20062;-74
2024/01/31 07:56:59;;;;;;;3.28;1.58;;;;;;;;;;5124446;27;20051;-74
2024/01/31 07:59:30;;;;;;;1.70;1.08;;;;;;;;;;5126807;27;20043;-76
2024/01/31 08:02:00;;;;;;;4.80;1.20;;;;;;;;;;5125936;27;20043;-75
2024/01/31 08:04:31;;;;;;;4.22;1.20;;;;;;;;;;5126621;27;20047;-76
2024/01/31 08:07:02;;;;;;;1.77;1.00;;;;;;;;;;5125636;27;20054;-76
2024/01/31 08:09:33;;;;;;;4.50;1.02;;;;;;;;;;5125563;27;20054;-75
2024/01/31 08:12:03;;;;;;;7.53;1.27;;;;;;;;;;5124677;27;20035;-75
2024/01/31 08:14:35;;;;;;;4.18;1.30;;;;;;;;;;5125625;27;20066;-75
2024/01/31 08:17:06;;;;;;;7.55;1.58;;;;;;;;;;5124659;27;20047;-74
2024/01/31 08:19:36;;;;;;;7.22;1.50;;;;;;;;;;5125815;27;20058;-74
2024/01/31 08:22:07;;;;;;;6.82;1.60;;;;;;;;;;5125519;27;20852;-75
2024/01/31 08:24:38;;;;;;;1.38;1.23;;;;;;;;;;5125719;27;20506;-76
2024/01/31 08:27:08;;;;;;;2.75;1.45;;;;;;;;;;5125839;27;20039;-73
2024/01/31 08:29:39;;;;;;;3.88;1.13;;;;;;;;;;5125445;27;20039;-75
2024/01/31 08:32:08;;;;;;;3.38;1.10;;;;;;;;;;5125878;27;20043;-75
2024/01/31 08:34:41;;;;;;;5.22;1.20;;;;;;;;;;5125582;27;20047;-75
2024/01/31 08:37:12;;;;;;;1.60;1.25;;;;;;;;;;5125502;27;20040;-74
2024/01/31 08:39:44;;;;;;;3.10;1.27;;;;;;;;;;5125364;27;20642;-74
2024/01/31 08:42:14;;;;;;;3.17;1.38;;;;;;;;;;5123469;27;20050;-76
2024/01/31 08:44:46;;;;;;;2.45;1.10;;;;;;;;;;5125531;27;20051;-73
2024/01/31 08:47:16;;;;;;;2.22;1.23;;;;;;;;;;5125123;27;20047;-75
2024/01/31 08:49:49;;;;;;;3.92;1.50;;;;;;;;;;5125327;27;20047;-74
2024/01/31 08:52:19;;;;;;;3.38;1.35;;;;;;;;;;5124768;27;20626;-75
2024/01/31 08:54:50;;;;;;;2.15;1.23;;;;;;;;;;5125443;27;20043;-75
2024/01/31 08:57:21;;;;;;;4.45;1.30;;;;;;;;;;5124046;27;20031;-73
2024/01/31 08:59:52;;;;;;;3.45;1.23;;;;;;;;;;5124974;27;20501;-76
2024/01/31 09:02:23;;;;;;;3.83;1.10;;;;;;;;;;5125314;27;20588;-75
2024/01/31 09:04:53;;;;;;;3.75;1.20;;;;;;;;;;5124851;27;20035;-76
2024/01/31 09:07:24;;;;;;;4.03;1.10;;;;;;;;;;5124130;27;20047;-74
2024/01/31 09:09:55;;;;;;;10.73;1.30;;;;;;;;;;5124836;27;20039;-76
2024/01/31 09:12:25;;;;;;;7.97;1.50;;;;;;;;;;5123301;27;20050;-74
2024/01/31 09:14:57;;;;;;;4.03;1.20;;;;;;;;;;5124465;27;20050;-75
2024/01/31 09:17:28;;;;;;;5.45;1.20;;;;;;;;;;5124299;27;20521;-75
2024/01/31 09:19:59;;;;;;;5.78;1.50;;;;;;;;;;5122780;27;20051;-73
2024/01/31 09:22:29;;;;;;;2.72;1.17;;;;;;;;;;5124712;27;20058;-73
2024/01/31 09:25:00;;;;;;;2.08;1.38;;;;;;;;;;5124715;27;20082;-74
2024/01/31 09:27:33;;;;;;;5.03;1.85;;;;;;;;;;5124516;27;20671;-75
2024/01/31 09:30:04;;;;;;;4.88;1.63;;;;;;;;;;5122678;27;20991;-75
2024/01/31 09:32:35;;;;;;;10.05;1.50;;;;;;;;;;5124231;27;20049;-82
2024/01/31 09:35:07;;;;;;;5.80;1.50;;;;;;;;;;5123831;27;20528;-75
2024/01/31 09:37:38;;;;;;;3.08;1.30;;;;;;;;;;5123872;27;20043;-76
2024/01/31 09:40:14;;;;;;;9.43;2.03;;;;;;;;;;5123692;27;20457;-74
2024/01/31 09:42:45;;;;;;;3.80;1.50;;;;;;;;;;5124519;27;20117;-75
2024/01/31 09:45:16;;;;;;;4.47;1.77;;;;;;;;;;5123264;27;20046;-75
2024/01/31 09:47:49;;;;;;;8.55;2.38;;;;;;;;;;5123887;27;20405;-74
2024/01/31 09:50:20;;;;;;;4.63;1.80;;;;;;;;;;5123684;27;20047;-76
2024/01/31 09:52:53;;;;;;;3.45;2.05;;;;;;;;;;5123797;27;20383;-73
2024/01/31 09:55:28;;;;;;;19.38;2.50;;;;;;;;;;5123544;27;20074;-76
2024/01/31 09:58:02;;;;;;;7.05;2.22;;;;;;;;;;5123905;27;20050;-81
2024/01/31 10:00:34;;;;;;;16.20;2.58;;;;;;;;;;5123919;27;20039;-74
2024/01/31 10:03:05;;;;;;;11.98;2.03;;;;;;;;;;5120785;27;20051;-76
2024/01/31 10:05:38;;;;;;;7.82;2.15;;;;;;;;;;5122024;27;20051;-78
2024/01/31 10:08:08;;;;;;;9.65;2.25;;;;;;;;;;5122148;27;20050;-75
2024/01/31 10:10:38;;;;;;;9.65;2.22;;;;;;;;;;5122778;27;20047;-87
2024/01/31 10:13:09;;;;;;;5.47;1.73;;;;;;;;;;5122926;27;20104;-74
2024/01/31 10:15:40;;;;;;;5.32;2.08;;;;;;;;;;5121478;27;20394;-75
2024/01/31 10:18:11;;;;;;;8.05;2.45;;;;;;;;;;5122830;27;20054;-77
2024/01/31 10:20:44;;;;;;;11.25;2.10;;;;;;;;;;5122731;27;20047;-77
2024/01/31 10:23:15;;;;;;;6.57;1.98;;;;;;;;;;5123290;27;20619;-75
2024/01/31 10:25:46;;;;;;;4.38;1.90;;;;;;;;;;5123028;27;20051;-78
2024/01/31 10:28:20;;;;;;;7.88;2.30;;;;;;;;;;5123623;27;20039;-76
2024/01/31 10:30:51;;;;;;;4.70;1.95;;;;;;;;;;5123599;27;20039;-77
2024/01/31 10:33:24;;;;;;;4.93;2.17;;;;;;;;;;5122278;27;20054;-77
2024/01/31 10:35:56;;;;;;;10.55;1.80;;;;;;;;;;5122119;27;20062;-77
2024/01/31 10:38:32;;;;;;;14.93;3.65;;;;;;;;;;5123546;27;20039;-76
2024/01/31 10:41:08;;;;;;;12.57;2.20;;;;;;;;;;5123070;27;20405;-75
2024/01/31 10:43:41;;;;;;;7.13;1.60;;;;;;;;;;5122900;27;20045;-82
2024/01/31 10:46:13;;;;;;;3.90;1.63;;;;;;;;;;5123655;27;20055;-76
2024/01/31 10:48:44;;;;;;;5.15;1.30;;;;;;;;;;5123233;27;20740;-75
2024/01/31 10:51:15;;;;;;;11.50;1.52;;;;;;;;;;5123305;28;20062;-75
2024/01/31 10:53:52;;;;;;;22.10;2.22;;;;;;;;;;5122134;28;20046;-75
2024/01/31 10:56:26;;;;;;;9.23;1.63;;;;;;;;;;5123387;28;20047;-75
2024/01/31 10:58:57;;;;;;;4.05;1.00;;;;;;;;;;5123125;28;20052;-79
2024/01/31 11:01:31;;;;;;;11.85;1.50;;;;;;;;;;5123116;28;20477;-76
2024/01/31 11:04:05;;;;;;;6.57;1.45;;;;;;;;;;5123425;28;20421;-73
2024/01/31 11:06:43;;;;;;;7.57;1.13;;;;;;;;;;5122509;28;20058;-75
2024/01/31 11:09:22;;;;;;;9.75;1.40;;;;;;;;;;5122903;28;20047;-75
2024/01/31 11:12:16;;;;;;;3.95;1.40;;;;;;;;;;5122910;28;20047;-72
2024/01/31 11:14:48;;;;;;;5.82;1.30;;;;;;;;;;5121840;28;20039;-74
2024/01/31 11:17:23;;;;;;;4.20;1.70;;;;;;;;;;5122734;28;20043;-74
2024/01/31 11:19:59;;;;;;;3.05;1.25;;;;;;;;;;5122796;28;20524;-75
2024/01/31 11:22:30;;;;;;;7.35;1.60;;;;;;;;;;5123036;28;20497;-75
2024/01/31 11:25:03;;;;;;;4.90;1.35;;;;;;;;;;5122499;28;20051;-77
2024/01/31 11:27:35;;;;;;;6.03;1.95;;;;;;;;;;5122835;28;20051;-74
2024/01/31 11:30:06;;;;;;;8.52;1.50;;;;;;;;;;5122777;28;20043;-76
2024/01/31 11:32:39;;;;;;;5.30;1.23;;;;;;;;;;5122560;28;20058;-76
2024/01/31 11:35:09;;;;;;;3.05;1.02;;;;;;;;;;5122280;28;20047;-76
2024/01/31 11:37:41;;;;;;;5.07;1.30;;;;;;;;;;5122087;28;20050;-73
2024/01/31 11:40:12;;;;;;;9.27;1.40;;;;;;;;;;5122323;28;20049;-75
2024/01/31 11:42:42;;;;;;;7.93;0.98;;;;;;;;;;5122450;28;20043;-76
2024/01/31 11:45:12;;;;;;;9.13;2.30;;;;;;;;;;5122616;27;20043;-77
2024/01/31 11:47:43;;;;;;;6.47;1.05;;;;;;;;;;5126414;27;20047;-75
2024/01/31 11:50:15;;;;;;;4.68;1.35;;;;;;;;;;5125951;27;20043;-75
2024/01/31 11:52:50;;;;;;;16.40;2.13;;;;;;;;;;5128249;27;20050;-79
2024/01/31 11:55:25;;;;;;;2.85;1.27;;;;;;;;;;5126122;27;20671;-75
2024/01/31 11:57:56;;;;;;;13.77;2.58;;;;;;;;;;5126372;27;20661;-75
2024/01/31 12:00:27;;;;;;;11.57;1.85;;;;;;;;;;5126367;27;20043;-74
2024/01/31 12:02:58;;;;;;;11.63;1.45;;;;;;;;;;5126089;27;20331;-75
2024/01/31 12:05:29;;;;;;;2.55;1.08;;;;;;;;;;5125670;27;20686;-76
2024/01/31 12:08:00;;;;;;;11.65;2.10;;;;;;;;;;5126246;27;20129;-73
2024/01/31 12:10:31;;;;;;;4.45;1.20;;;;;;;;;;5125078;27;20533;-77
2024/01/31 12:13:05;;;;;;;4.82;1.10;;;;;;;;;;5125346;27;20417;-75
2024/01/31 12:15:35;;;;;;;12.43;2.58;;;;;;;;;;5125899;27;20054;-75
2024/01/31 12:18:05;;;;;;;3.75;0.80;;;;;;;;;;5123801;27;20055;-76
2024/01/31 12:20:41;;;;;;;2.45;0.80;;;;;;;;;;5126303;27;20057;-76
2024/01/31 12:23:14;;;;;;;3.83;0.90;;;;;;;;;;5126219;27;20386;-75
2024/01/31 12:25:46;;;;;;;5.03;0.77;;;;;;;;;;5124949;27;20043;-77
2024/01/31 12:28:16;;;;;;;2.40;0.80;;;;;;;;;;5125603;27;20047;-75
2024/01/31 12:30:46;;;;;;;4.63;1.60;;;;;;;;;;5125451;27;20046;-77
2024/01/31 12:33:20;;;;;;;3.80;0.88;;;;;;;;;;5126091;27;20674;-77
2024/01/31 12:35:52;;;;;;;3.33;0.90;;;;;;;;;;5125430;27;20544;-74
2024/01/31 12:38:22;;;;;;;3.05;0.90;;;;;;;;;;5125414;27;20057;-76
2024/01/31 12:40:53;;;;;;;6.43;1.00;;;;;;;;;;5125066;27;20483;-76
2024/01/31 12:43:25;;;;;;;5.55;1.05;;;;;;;;;;5125654;27;20050;-76
2024/01/31 12:45:57;;;;;;;4.22;0.90;;;;;;;;;;5125112;27;20433;-76
2024/01/31 12:48:28;;;;;;;6.03;1.10;;;;;;;;;;5125315;27;20066;-75
2024/01/31 12:50:59;;;;;;;7.30;0.60;;;;;;;;;;5125010;27;20047;-77
2024/01/31 12:53:30;;;;;;;8.02;2.22;;;;;;;;;;5125209;27;20054;-79
2024/01/31 12:56:01;;;;;;;4.13;0.60;;;;;;;;;;5124975;27;20043;-75
2024/01/31 12:58:31;;;;;;;4.40;0.80;;;;;;;;;;5122278;27;20051;-74
2024/01/31 13:01:02;;;;;;;4.47;0.95;;;;;;;;;;5124547;27;20043;-77
2024/01/31 13:03:35;;;;;;;3.55;0.90;;;;;;;;;;5124494;27;20051;-75
2024/01/31 13:06:07;;;;;;;12.60;1.23;;;;;;;;;;5124599;27;20051;-74
2024/01/31 13:08:42;;;;;;;7.05;0.93;;;;;;;;;;5125071;27;20497;-75
2024/01/31 13:11:14;;;;;;;3.80;0.50;;;;;;;;;;5124994;27;20050;-75
2024/01/31 13:13:49;;;;;;;3.72;0.85;;;;;;;;;;5124363;27;20756;-77
2024/01/31 13:16:24;;;;;;;6.10;1.00;;;;;;;;;;5125034;27;20047;-77
2024/01/31 13:18:54;;;;;;;3.05;0.63;;;;;;;;;;5124348;27;20043;-77
2024/01/31 13:21:25;;;;;;;1.75;0.57;;;;;;;;;;5124811;27;20043;-74
2024/01/31 13:23:56;;;;;;;5.35;0.70;;;;;;;;;;5124989;27;20681;-74
2024/01/31 13:26:32;;;;;;;3.05;0.73;;;;;;;;;;5124254;27;20058;-77
2024/01/31 13:29:03;;;;;;;4.85;0.60;;;;;;;;;;5124544;27;20039;-76
2024/01/31 13:31:33;;;;;;;2.42;0.90;;;;;;;;;;5124407;27;20047;-76
2024/01/31 13:34:03;;;;;;;1.63;0.55;;;;;;;;;;5124182;27;20039;-77
2024/01/31 13:36:34;;;;;;;2.80;0.63;;;;;;;;;;5123705;27;20066;-75
2024/01/31 13:39:05;;;;;;;5.28;1.42;;;;;;;;;;5124223;27;20043;-75
2024/01/31 13:41:39;;;;;;;3.83;0.70;;;;;;;;;;5123961;27;20066;-77
2024/01/31 13:44:09;;;;;;;11.57;1.63;;;;;;;;;;5123886;27;20052;-81
2024/01/31 13:46:39;;;;;;;6.55;0.98;;;;;;;;;;5124067;27;20528;-83
2024/01/31 13:49:12;;;;;;;3.80;1.10;;;;;;;;;;5124202;27;20047;-75
2024/01/31 13:51:43;;;;;;;2.90;0.60;;;;;;;;;;5124278;27;20054;-75
2024/01/31 13:54:15;;;;;;;7.00;1.30;;;;;;;;;;5123927;27;20520;-77
2024/01/31 13:56:46;;;;;;;2.40;0.50;;;;;;;;;;5123951;27;20058;-74
2024/01/31 13:59:16;;;;;;;4.18;0.95;;;;;;;;;;5123608;27;20050;-77
2024/01/31 14:01:47;;;;;;;1.88;0.70;;;;;;;;;;5123497;27;20671;-75
2024/01/31 14:04:23;;;;;;;5.47;1.02;;;;;;;;;;5123858;27;20047;-76
2024/01/31 14:06:54;;;;;;;2.35;0.73;;;;;;;;;;5123693;27;20039;-77
2024/01/31 14:09:25;;;;;;;2.55;0.60;;;;;;;;;;5122644;27;20039;-80
2024/01/31 14:11:56;;;;;;;2.67;0.60;;;;;;;;;;5123072;27;20527;-73
2024/01/31 14:14:26;;;;;;;1.80;0.70;;;;;;;;;;5123852;27;20051;-76
2024/01/31 14:16:58;;;;;;;2.05;0.60;;;;;;;;;;5123667;27;20057;-76
2024/01/31 14:19:30;;;;;;;3.28;0.50;;;;;;;;;;5123831;27;20516;-76
2024/01/31 14:22:02;;;;;;;2.03;0.40;;;;;;;;;;5123755;27;20047;-80
2024/01/31 14:24:48;;;;;;;2.90;0.60;;;;;;;;;;5123977;27;20058;-75
2024/01/31 14:27:19;;;;;;;4.50;0.60;;;;;;;;;;5123293;27;20592;-76
2024/01/31 14:29:49;;;;;;;4.50;0.75;;;;;;;;;;5123123;27;20039;-77
2024/01/31 14:32:21;;;;;;;7.60;2.08;;;;;;;;;;5123346;27;20054;-76
2024/01/31 14:34:54;;;;;;;2.83;1.13;;;;;;;;;;5123197;27;20410;-76
2024/01/31 14:37:25;;;;;;;3.70;0.60;;;;;;;;;;5122956;27;20043;-78
2024/01/31 14:39:55;;;;;;;2.15;0.75;;;;;;;;;;5121992;27;20041;-76
2024/01/31 14:42:27;;;;;;;1.60;0.50;;;;;;;;;;5123312;27;20859;-76
2024/01/31 14:44:57;;;;;;;2.60;0.60;;;;;;;;;;5123584;27;20042;-77
2024/01/31 14:47:28;;;;;;;2.35;0.52;;;;;;;;;;5122973;27;20062;-76
2024/01/31 14:49:58;;;;;;;0.98;0.43;;;;;;;;;;5121610;27;20058;-77
2024/01/31 14:52:29;;;;;;;2.70;0.50;;;;;;;;;;5122840;27;20070;-81
2024/01/31 14:55:03;;;;;;;1.40;0.55;;;;;;;;;;5122966;28;20519;-76
2024/01/31 14:57:35;;;;;;;2.08;0.57;;;;;;;;;;5120776;28;20062;-78
2024/01/31 15:00:07;;;;;;;3.58;0.70;;;;;;;;;;5123056;28;20043;-83
2024/01/31 15:02:37;;;;;;;0.88;0.60;;;;;;;;;;5122593;28;20054;-76
2024/01/31 15:05:09;;;;;;;2.85;0.90;;;;;;;;;;5122562;28;20047;-76
2024/01/31 15:07:40;;;;;;;2.50;0.75;;;;;;;;;;5122844;28;20039;-76
2024/01/31 15:10:11;;;;;;;3.35;0.60;;;;;;;;;;5122973;28;20619;-78